sensor_id;sensor_type;location;lat;lon;timestamp;pressure;altitude;pressure_sealevel;temperature;humidity
7660;BME280;3872;47.902;8.162;2022-07-12T00:01:49;92608.84;;;12.03;100.00
7660;BME280;3872;47.902;8.162;2022-07-12T00:04:16;92616.81;;;11.98;100.00
7660;BME280;3872;47.902;8.162;2022-07-12T00:06:43;92609.19;;;11.97;100.00
7660;BME280;3872;47.902;8.162;2022-07-12T00:09:09;92611.41;;;11.90;100.00
7660;BME280;3872;47.902;8.162;2022-07-12T00:11:37;92618.00;;;11.87;100.00
7660;BME280;3872;47.902;8.162;2022-07-12T00:14:04;92614.81;;;11.90;100.00
7660;BME280;3872;47.902;8.162;2022-07-12T00:16:31;92607.75;;;11.86;100.00
7660;BME280;3872;47.902;8.162;2022-07-12T00:18:59;92618.09;;;11.82;100.00
7660;BME280;3872;47.902;8.162;2022-07-12T00:21:26;92609.97;;;11.79;100.00
7660;BME280;3872;47.902;8.162;2022-07-12T00:23:52;92611.50;;;11.80;100.00
7660;BME280;3872;47.902;8.162;2022-07-12T00:26:19;92610.59;;;11.65;100.00
7660;BME280;3872;47.902;8.162;2022-07-12T00:28:46;92612.97;;;11.67;100.00
7660;BME280;3872;47.902;8.162;2022-07-12T00:31:12;92607.19;;;11.65;100.00
7660;BME280;3872;47.902;8.162;2022-07-12T00:33:39;92615.94;;;11.60;100.00
7660;BME280;3872;47.902;8.162;2022-07-12T00:36:08;92607.50;;;11.58;100.00
7660;BME280;3872;47.902;8.162;2022-07-12T00:38:34;92615.38;;;11.39;100.00
7660;BME280;3872;47.902;8.162;2022-07-12T00:41:01;92612.81;;;11.34;100.00
7660;BME280;3872;47.902;8.162;2022-07-12T00:43:27;92614.59;;;11.15;100.00
7660;BME280;3872;47.902;8.162;2022-07-12T00:45:54;92604.88;;;11.11;100.00
7660;BME280;3872;47.902;8.162;2022-07-12T00:48:21;92607.75;;;11.14;100.00
7660;BME280;3872;47.902;8.162;2022-07-12T00:50:48;92610.75;;;11.03;100.00
7660;BME280;3872;47.902;8.162;2022-07-12T00:53:16;92609.41;;;11.05;100.00
7660;BME280;3872;47.902;8.162;2022-07-12T00:55:51;92605.06;;;10.90;100.00
7660;BME280;3872;47.902;8.162;2022-07-12T00:58:18;92601.44;;;10.81;100.00
7660;BME280;3872;47.902;8.162;2022-07-12T01:00:45;92607.59;;;10.72;100.00
7660;BME280;3872;47.902;8.162;2022-07-12T01:03:11;92606.78;;;10.76;100.00
7660;BME280;3872;47.902;8.162;2022-07-12T01:05:38;92607.78;;;10.80;100.00
7660;BME280;3872;47.902;8.162;2022-07-12T01:08:05;92608.28;;;10.82;100.00
7660;BME280;3872;47.902;8.162;2022-07-12T01:10:35;92608.81;;;10.84;100.00
7660;BME280;3872;47.902;8.162;2022-07-12T01:13:03;92608.50;;;10.91;100.00
7660;BME280;3872;47.902;8.162;2022-07-12T01:15:29;92606.22;;;10.79;100.00
7660;BME280;3872;47.902;8.162;2022-07-12T01:17:57;92602.41;;;10.62;100.00
7660;BME280;3872;47.902;8.162;2022-07-12T01:20:25;92601.91;;;10.59;100.00
7660;BME280;3872;47.902;8.162;2022-07-12T01:22:54;92598.69;;;10.68;100.00
7660;BME280;3872;47.902;8.162;2022-07-12T01:25:23;92606.31;;;10.69;100.00
7660;BME280;3872;47.902;8.162;2022-07-12T01:27:50;92605.44;;;10.79;100.00
7660;BME280;3872;47.902;8.162;2022-07-12T01:30:16;92606.66;;;10.57;100.00
7660;BME280;3872;47.902;8.162;2022-07-12T01:32:43;92598.78;;;10.57;100.00
7660;BME280;3872;47.902;8.162;2022-07-12T01:35:10;92607.78;;;10.46;100.00
7660;BME280;3872;47.902;8.162;2022-07-12T01:37:39;92607.06;;;10.41;100.00
7660;BME280;3872;47.902;8.162;2022-07-12T01:40:09;92604.16;;;10.42;100.00
7660;BME280;3872;47.902;8.162;2022-07-12T01:42:37;92608.41;;;10.33;100.00
7660;BME280;3872;47.902;8.162;2022-07-12T01:45:05;92609.47;;;10.37;100.00
7660;BME280;3872;47.902;8.162;2022-07-12T01:47:32;92603.63;;;10.40;100.00
7660;BME280;3872;47.902;8.162;2022-07-12T01:50:00;92598.16;;;10.37;100.00
7660;BME280;3872;47.902;8.162;2022-07-12T01:52:27;92603.69;;;10.35;100.00
7660;BME280;3872;47.902;8.162;2022-07-12T01:54:55;92600.84;;;10.27;100.00
7660;BME280;3872;47.902;8.162;2022-07-12T01:57:23;92592.69;;;10.28;100.00
7660;BME280;3872;47.902;8.162;2022-07-12T01:59:51;92597.75;;;10.14;100.00
7660;BME280;3872;47.902;8.162;2022-07-12T02:02:18;92595.59;;;10.16;100.00
7660;BME280;3872;47.902;8.162;2022-07-12T02:04:46;92596.44;;;10.12;100.00
7660;BME280;3872;47.902;8.162;2022-07-12T02:07:13;92600.63;;;10.13;100.00
7660;BME280;3872;47.902;8.162;2022-07-12T02:09:39;92599.41;;;10.00;100.00
7660;BME280;3872;47.902;8.162;2022-07-12T02:12:06;92600.69;;;10.03;100.00
7660;BME280;3872;47.902;8.162;2022-07-12T02:14:34;92597.25;;;10.02;100.00
7660;BME280;3872;47.902;8.162;2022-07-12T02:17:01;92597.34;;;9.92;100.00
7660;BME280;3872;47.902;8.162;2022-07-12T02:19:27;92592.31;;;9.96;100.00
7660;BME280;3872;47.902;8.162;2022-07-12T02:21:54;92592.38;;;9.86;100.00
7660;BME280;3872;47.902;8.162;2022-07-12T02:24:20;92597.94;;;9.74;100.00
7660;BME280;3872;47.902;8.162;2022-07-12T02:26:47;92597.22;;;9.63;100.00
7660;BME280;3872;47.902;8.162;2022-07-12T02:29:13;92603.50;;;9.72;100.00
7660;BME280;3872;47.902;8.162;2022-07-12T02:31:41;92603.50;;;9.72;100.00
7660;BME280;3872;47.902;8.162;2022-07-12T02:34:08;92596.41;;;9.73;100.00
7660;BME280;3872;47.902;8.162;2022-07-12T02:36:34;92591.94;;;9.68;100.00
7660;BME280;3872;47.902;8.162;2022-07-12T02:39:02;92596.63;;;9.76;100.00
7660;BME280;3872;47.902;8.162;2022-07-12T02:41:29;92597.41;;;9.77;100.00
7660;BME280;3872;47.902;8.162;2022-07-12T02:43:57;92595.59;;;9.72;100.00
7660;BME280;3872;47.902;8.162;2022-07-12T02:46:23;92596.13;;;9.69;100.00
7660;BME280;3872;47.902;8.162;2022-07-12T02:48:51;92597.19;;;9.68;100.00
7660;BME280;3872;47.902;8.162;2022-07-12T02:51:18;92594.59;;;9.63;100.00
7660;BME280;3872;47.902;8.162;2022-07-12T02:53:45;92595.91;;;9.61;100.00
7660;BME280;3872;47.902;8.162;2022-07-12T02:56:11;92599.66;;;9.39;100.00
7660;BME280;3872;47.902;8.162;2022-07-12T02:58:38;92599.38;;;9.46;100.00
7660;BME280;3872;47.902;8.162;2022-07-12T03:01:06;92598.34;;;9.42;100.00
7660;BME280;3872;47.902;8.162;2022-07-12T03:03:32;92605.44;;;9.41;100.00
7660;BME280;3872;47.902;8.162;2022-07-12T03:06:00;92598.88;;;9.39;100.00
7660;BME280;3872;47.902;8.162;2022-07-12T03:08:27;92601.50;;;9.39;100.00
7660;BME280;3872;47.902;8.162;2022-07-12T03:10:54;92604.41;;;9.42;100.00
7660;BME280;3872;47.902;8.162;2022-07-12T03:13:20;92602.06;;;9.36;100.00
7660;BME280;3872;47.902;8.162;2022-07-12T03:15:47;92607.31;;;9.31;100.00
7660;BME280;3872;47.902;8.162;2022-07-12T03:18:15;92613.34;;;9.31;100.00
7660;BME280;3872;47.902;8.162;2022-07-12T03:20:42;92602.84;;;9.31;100.00
7660;BME280;3872;47.902;8.162;2022-07-12T03:23:10;92616.75;;;9.32;100.00
7660;BME280;3872;47.902;8.162;2022-07-12T03:25:36;92614.44;;;9.30;100.00
7660;BME280;3872;47.902;8.162;2022-07-12T03:28:03;92626.25;;;9.28;100.00
7660;BME280;3872;47.902;8.162;2022-07-12T03:30:30;92630.19;;;9.20;100.00
7660;BME280;3872;47.902;8.162;2022-07-12T03:32:57;92619.72;;;9.15;100.00
7660;BME280;3872;47.902;8.162;2022-07-12T03:35:23;92614.47;;;9.15;100.00
7660;BME280;3872;47.902;8.162;2022-07-12T03:37:51;92616.03;;;9.11;100.00
7660;BME280;3872;47.902;8.162;2022-07-12T03:40:20;92608.69;;;9.13;100.00
7660;BME280;3872;47.902;8.162;2022-07-12T03:42:47;92618.94;;;9.15;100.00
7660;BME280;3872;47.902;8.162;2022-07-12T03:45:14;92609.44;;;9.29;100.00
7660;BME280;3872;47.902;8.162;2022-07-12T03:47:41;92615.25;;;9.16;100.00
7660;BME280;3872;47.902;8.162;2022-07-12T03:50:10;92618.91;;;9.20;100.00
7660;BME280;3872;47.902;8.162;2022-07-12T03:52:38;92617.38;;;9.09;100.00
7660;BME280;3872;47.902;8.162;2022-07-12T03:55:05;92618.94;;;9.04;100.00
7660;BME280;3872;47.902;8.162;2022-07-12T03:57:34;92613.69;;;9.04;100.00
7660;BME280;3872;47.902;8.162;2022-07-12T04:00:01;92616.59;;;8.93;100.00
7660;BME280;3872;47.902;8.162;2022-07-12T04:02:29;92617.91;;;8.90;100.00
7660;BME280;3872;47.902;8.162;2022-07-12T04:04:56;92618.16;;;8.99;100.00
7660;BME280;3872;47.902;8.162;2022-07-12T04:07:23;92622.63;;;8.98;100.00
7660;BME280;3872;47.902;8.162;2022-07-12T04:09:49;92614.25;;;8.86;100.00
7660;BME280;3872;47.902;8.162;2022-07-12T04:12:16;92624.22;;;8.84;100.00
7660;BME280;3872;47.902;8.162;2022-07-12T04:14:44;92626.56;;;8.96;100.00
7660;BME280;3872;47.902;8.162;2022-07-12T04:17:10;92621.06;;;8.92;100.00
7660;BME280;3872;47.902;8.162;2022-07-12T04:19:37;92621.31;;;8.91;100.00
7660;BME280;3872;47.902;8.162;2022-07-12T04:22:03;92627.09;;;8.98;100.00
7660;BME280;3872;47.902;8.162;2022-07-12T04:24:30;92626.84;;;8.89;100.00
7660;BME280;3872;47.902;8.162;2022-07-12T04:26:56;92637.06;;;9.01;100.00
7660;BME280;3872;47.902;8.162;2022-07-12T04:29:23;92633.91;;;9.04;100.00
7660;BME280;3872;47.902;8.162;2022-07-12T04:31:51;92637.56;;;9.03;100.00
7660;BME280;3872;47.902;8.162;2022-07-12T04:34:17;92631.03;;;9.00;100.00
7660;BME280;3872;47.902;8.162;2022-07-12T04:36:44;92632.06;;;9.04;100.00
7660;BME280;3872;47.902;8.162;2022-07-12T04:39:11;92632.59;;;9.07;100.00
7660;BME280;3872;47.902;8.162;2022-07-12T04:41:37;92631.50;;;9.23;100.00
7660;BME280;3872;47.902;8.162;2022-07-12T04:44:04;92638.88;;;9.21;100.00
7660;BME280;3872;47.902;8.162;2022-07-12T04:46:31;92632.97;;;9.59;100.00
7660;BME280;3872;47.902;8.162;2022-07-12T04:48:59;92640.34;;;9.52;100.00
7660;BME280;3872;47.902;8.162;2022-07-12T04:51:27;92636.91;;;9.57;100.00
7660;BME280;3872;47.902;8.162;2022-07-12T04:53:53;92639.00;;;9.65;100.00
7660;BME280;3872;47.902;8.162;2022-07-12T04:56:20;92636.50;;;9.89;100.00
7660;BME280;3872;47.902;8.162;2022-07-12T04:58:47;92646.47;;;9.97;100.00
7660;BME280;3872;47.902;8.162;2022-07-12T05:01:14;92649.34;;;9.95;100.00
7660;BME280;3872;47.902;8.162;2022-07-12T05:03:40;92645.88;;;10.10;100.00
7660;BME280;3872;47.902;8.162;2022-07-12T05:06:08;92639.44;;;10.36;100.00
7660;BME280;3872;47.902;8.162;2022-07-12T05:08:35;92632.75;;;10.54;100.00
7660;BME280;3872;47.902;8.162;2022-07-12T05:11:01;92640.78;;;10.73;100.00
7660;BME280;3872;47.902;8.162;2022-07-12T05:13:28;92640.19;;;10.76;100.00
7660;BME280;3872;47.902;8.162;2022-07-12T05:15:54;92647.19;;;10.90;100.00
7660;BME280;3872;47.902;8.162;2022-07-12T05:18:21;92647.13;;;11.01;100.00
7660;BME280;3872;47.902;8.162;2022-07-12T05:20:47;92646.34;;;11.00;100.00
7660;BME280;3872;47.902;8.162;2022-07-12T05:23:15;92643.06;;;11.13;100.00
7660;BME280;3872;47.902;8.162;2022-07-12T05:25:42;92651.28;;;11.35;100.00
7660;BME280;3872;47.902;8.162;2022-07-12T05:28:09;92645.66;;;11.66;100.00
7660;BME280;3872;47.902;8.162;2022-07-12T05:30:35;92644.44;;;11.82;100.00
7660;BME280;3872;47.902;8.162;2022-07-12T05:33:02;92632.16;;;11.96;100.00
7660;BME280;3872;47.902;8.162;2022-07-12T05:35:28;92630.25;;;12.21;100.00
7660;BME280;3872;47.902;8.162;2022-07-12T05:37:55;92631.59;;;12.37;100.00
7660;BME280;3872;47.902;8.162;2022-07-12T05:40:23;92632.34;;;12.42;100.00
7660;BME280;3872;47.902;8.162;2022-07-12T05:42:49;92631.97;;;12.49;100.00
7660;BME280;3872;47.902;8.162;2022-07-12T05:45:16;92636.78;;;12.79;100.00
7660;BME280;3872;47.902;8.162;2022-07-12T05:47:43;92633.97;;;12.89;100.00
7660;BME280;3872;47.902;8.162;2022-07-12T05:50:10;92637.31;;;12.95;100.00
7660;BME280;3872;47.902;8.162;2022-07-12T05:52:36;92640.44;;;13.16;100.00
7660;BME280;3872;47.902;8.162;2022-07-12T05:55:20;92647.09;;;13.13;100.00
7660;BME280;3872;47.902;8.162;2022-07-12T05:57:48;92644.31;;;13.51;100.00
7660;BME280;3872;47.902;8.162;2022-07-12T06:00:15;92645.50;;;13.86;100.00
7660;BME280;3872;47.902;8.162;2022-07-12T06:02:41;92641.44;;;14.29;100.00
7660;BME280;3872;47.902;8.162;2022-07-12T06:05:08;92642.13;;;14.48;100.00
7660;BME280;3872;47.902;8.162;2022-07-12T06:07:35;92648.47;;;13.84;100.00
7660;BME280;3872;47.902;8.162;2022-07-12T06:10:02;92643.22;;;14.47;100.00
7660;BME280;3872;47.902;8.162;2022-07-12T06:12:29;92645.13;;;14.69;100.00
7660;BME280;3872;47.902;8.162;2022-07-12T06:14:57;92642.66;;;14.95;100.00
7660;BME280;3872;47.902;8.162;2022-07-12T06:17:24;92648.66;;;15.54;100.00
7660;BME280;3872;47.902;8.162;2022-07-12T06:19:51;92647.56;;;15.94;100.00
7660;BME280;3872;47.902;8.162;2022-07-12T06:22:18;92649.31;;;16.08;100.00
7660;BME280;3872;47.902;8.162;2022-07-12T06:24:46;92645.63;;;16.34;100.00
7660;BME280;3872;47.902;8.162;2022-07-12T06:27:13;92645.97;;;16.41;100.00
7660;BME280;3872;47.902;8.162;2022-07-12T06:29:39;92656.69;;;16.67;100.00
7660;BME280;3872;47.902;8.162;2022-07-12T06:32:08;92657.03;;;16.35;100.00
7660;BME280;3872;47.902;8.162;2022-07-12T06:34:36;92648.78;;;16.45;100.00
7660;BME280;3872;47.902;8.162;2022-07-12T06:37:03;92654.03;;;16.76;100.00
7660;BME280;3872;47.902;8.162;2022-07-12T06:39:33;92654.31;;;17.26;100.00
7660;BME280;3872;47.902;8.162;2022-07-12T06:41:59;92652.09;;;17.37;100.00
7660;BME280;3872;47.902;8.162;2022-07-12T06:44:29;92660.72;;;17.25;100.00
7660;BME280;3872;47.902;8.162;2022-07-12T06:46:56;92658.31;;;17.49;100.00
7660;BME280;3872;47.902;8.162;2022-07-12T06:49:24;92653.91;;;17.71;100.00
7660;BME280;3872;47.902;8.162;2022-07-12T06:51:51;92658.97;;;17.46;100.00
7660;BME280;3872;47.902;8.162;2022-07-12T06:54:18;92664.25;;;17.72;100.00
7660;BME280;3872;47.902;8.162;2022-07-12T06:56:44;92659.66;;;18.19;100.00
7660;BME280;3872;47.902;8.162;2022-07-12T06:59:11;92659.66;;;18.19;100.00
7660;BME280;3872;47.902;8.162;2022-07-12T07:01:38;92653.03;;;18.63;100.00
7660;BME280;3872;47.902;8.162;2022-07-12T07:04:05;92656.09;;;18.74;100.00
7660;BME280;3872;47.902;8.162;2022-07-12T07:06:33;92656.69;;;18.80;100.00
7660;BME280;3872;47.902;8.162;2022-07-12T07:08:59;92649.16;;;19.02;100.00
7660;BME280;3872;47.902;8.162;2022-07-12T07:11:26;92646.28;;;19.07;100.00
7660;BME280;3872;47.902;8.162;2022-07-12T07:13:52;92646.47;;;19.56;100.00
7660;BME280;3872;47.902;8.162;2022-07-12T07:16:20;92650.66;;;19.78;100.00
7660;BME280;3872;47.902;8.162;2022-07-12T07:18:49;92653.84;;;19.59;100.00
7660;BME280;3872;47.902;8.162;2022-07-12T07:21:15;92659.09;;;19.68;100.00
7660;BME280;3872;47.902;8.162;2022-07-12T07:23:45;92659.03;;;19.55;100.00
7660;BME280;3872;47.902;8.162;2022-07-12T07:26:12;92653.06;;;19.38;100.00
7660;BME280;3872;47.902;8.162;2022-07-12T07:28:38;92662.19;;;19.70;100.00
7660;BME280;3872;47.902;8.162;2022-07-12T07:31:19;92648.75;;;19.66;100.00
7660;BME280;3872;47.902;8.162;2022-07-12T07:33:45;92662.34;;;19.98;100.00
7660;BME280;3872;47.902;8.162;2022-07-12T07:36:12;92662.16;;;20.15;100.00
7660;BME280;3872;47.902;8.162;2022-07-12T07:38:39;92667.44;;;19.78;100.00
7660;BME280;3872;47.902;8.162;2022-07-12T07:41:07;92665.66;;;19.70;100.00
7660;BME280;3872;47.902;8.162;2022-07-12T07:43:34;92671.72;;;19.46;100.00
7660;BME280;3872;47.902;8.162;2022-07-12T07:46:00;92666.91;;;19.85;100.00
7660;BME280;3872;47.902;8.162;2022-07-12T07:48:27;92675.91;;;19.80;100.00
7660;BME280;3872;47.902;8.162;2022-07-12T07:50:54;92684.09;;;19.63;100.00
7660;BME280;3872;47.902;8.162;2022-07-12T07:53:20;92678.78;;;19.75;100.00
7660;BME280;3872;47.902;8.162;2022-07-12T07:55:47;92674.94;;;19.97;100.00
7660;BME280;3872;47.902;8.162;2022-07-12T07:58:15;92676.00;;;19.72;100.00
7660;BME280;3872;47.902;8.162;2022-07-12T08:00:42;92683.84;;;19.89;100.00
7660;BME280;3872;47.902;8.162;2022-07-12T08:03:08;92684.66;;;20.26;100.00
7660;BME280;3872;47.902;8.162;2022-07-12T08:05:35;92684.09;;;20.20;100.00
7660;BME280;3872;47.902;8.162;2022-07-12T08:08:02;92675.63;;;20.06;100.00
7660;BME280;3872;47.902;8.162;2022-07-12T08:10:29;92679.38;;;20.38;100.00
7660;BME280;3872;47.902;8.162;2022-07-12T08:12:55;92676.34;;;20.40;100.00
7660;BME280;3872;47.902;8.162;2022-07-12T08:15:23;92686.34;;;20.55;99.88
7660;BME280;3872;47.902;8.162;2022-07-12T08:17:50;92686.91;;;20.48;100.00
7660;BME280;3872;47.902;8.162;2022-07-12T08:20:17;92689.25;;;20.86;84.17
7660;BME280;3872;47.902;8.162;2022-07-12T08:22:44;92686.19;;;21.00;78.24
7660;BME280;3872;47.902;8.162;2022-07-12T08:25:11;92689.38;;;20.65;82.30
7660;BME280;3872;47.902;8.162;2022-07-12T08:27:37;92683.97;;;21.02;75.64
7660;BME280;3872;47.902;8.162;2022-07-12T08:30:05;92689.19;;;21.10;75.22
7660;BME280;3872;47.902;8.162;2022-07-12T08:32:33;92692.53;;;21.20;78.69
7660;BME280;3872;47.902;8.162;2022-07-12T08:35:00;92699.47;;;20.96;76.69
7660;BME280;3872;47.902;8.162;2022-07-12T08:37:27;92686.78;;;20.93;74.53
7660;BME280;3872;47.902;8.162;2022-07-12T08:39:54;92688.69;;;20.81;76.25
7660;BME280;3872;47.902;8.162;2022-07-12T08:42:20;92690.44;;;21.01;72.01
7660;BME280;3872;47.902;8.162;2022-07-12T08:44:53;92686.59;;;21.26;73.65
7660;BME280;3872;47.902;8.162;2022-07-12T08:47:20;92679.94;;;21.48;68.83
7660;BME280;3872;47.902;8.162;2022-07-12T08:50:12;92685.09;;;21.69;62.42
7660;BME280;3872;47.902;8.162;2022-07-12T08:52:40;92680.69;;;22.04;62.29
7660;BME280;3872;47.902;8.162;2022-07-12T08:55:21;92683.13;;;22.09;63.09
7660;BME280;3872;47.902;8.162;2022-07-12T08:57:50;92683.31;;;22.16;67.05
7660;BME280;3872;47.902;8.162;2022-07-12T09:00:17;92687.50;;;21.58;66.84
7660;BME280;3872;47.902;8.162;2022-07-12T09:02:46;92687.81;;;22.28;64.25
7660;BME280;3872;47.902;8.162;2022-07-12T09:05:15;92689.28;;;21.82;64.77
7660;BME280;3872;47.902;8.162;2022-07-12T09:07:42;92695.03;;;21.96;60.44
7660;BME280;3872;47.902;8.162;2022-07-12T09:10:11;92691.59;;;22.11;61.97
7660;BME280;3872;47.902;8.162;2022-07-12T09:12:38;92704.31;;;22.14;60.58
7660;BME280;3872;47.902;8.162;2022-07-12T09:15:14;92693.41;;;22.86;54.88
7660;BME280;3872;47.902;8.162;2022-07-12T09:17:47;92690.72;;;22.70;59.91
7660;BME280;3872;47.902;8.162;2022-07-12T09:20:21;92693.78;;;22.21;62.68
7660;BME280;3872;47.902;8.162;2022-07-12T09:22:53;92692.72;;;22.42;59.93
7660;BME280;3872;47.902;8.162;2022-07-12T09:25:21;92696.16;;;22.89;56.92
7660;BME280;3872;47.902;8.162;2022-07-12T09:27:50;92694.63;;;22.73;61.04
7660;BME280;3872;47.902;8.162;2022-07-12T09:30:17;92693.72;;;23.00;57.58
7660;BME280;3872;47.902;8.162;2022-07-12T09:32:57;92699.44;;;23.53;52.72
7660;BME280;3872;47.902;8.162;2022-07-12T09:35:43;92694.69;;;23.46;49.19
7660;BME280;3872;47.902;8.162;2022-07-12T09:38:34;92692.38;;;23.83;51.23
7660;BME280;3872;47.902;8.162;2022-07-12T09:41:01;92690.75;;;23.78;52.32
7660;BME280;3872;47.902;8.162;2022-07-12T09:43:28;92691.81;;;23.00;52.01
7660;BME280;3872;47.902;8.162;2022-07-12T09:45:55;92697.22;;;23.39;53.74
7660;BME280;3872;47.902;8.162;2022-07-12T09:48:22;92696.53;;;23.42;52.37
7660;BME280;3872;47.902;8.162;2022-07-12T09:50:51;92708.44;;;23.60;53.21
7660;BME280;3872;47.902;8.162;2022-07-12T09:53:21;92703.47;;;24.01;48.04
7660;BME280;3872;47.902;8.162;2022-07-12T09:55:49;92709.00;;;23.69;47.65
7660;BME280;3872;47.902;8.162;2022-07-12T09:58:22;92709.41;;;23.52;49.71
7660;BME280;3872;47.902;8.162;2022-07-12T10:00:51;92707.28;;;23.42;49.95
7660;BME280;3872;47.902;8.162;2022-07-12T10:03:20;92709.44;;;24.55;49.16
7660;BME280;3872;47.902;8.162;2022-07-12T10:05:51;92718.28;;;24.79;46.28
7660;BME280;3872;47.902;8.162;2022-07-12T10:08:19;92721.97;;;22.47;51.44
7660;BME280;3872;47.902;8.162;2022-07-12T10:10:47;92716.69;;;22.50;51.92
7660;BME280;3872;47.902;8.162;2022-07-12T10:13:16;92702.94;;;24.14;48.55
7660;BME280;3872;47.902;8.162;2022-07-12T10:15:44;92707.97;;;25.37;45.61
7660;BME280;3872;47.902;8.162;2022-07-12T10:18:17;92708.28;;;24.79;46.67
7660;BME280;3872;47.902;8.162;2022-07-12T10:20:45;92714.66;;;25.77;43.89
7660;BME280;3872;47.902;8.162;2022-07-12T10:23:30;92711.00;;;25.95;42.87
7660;BME280;3872;47.902;8.162;2022-07-12T10:26:00;92716.47;;;24.86;42.61
7660;BME280;3872;47.902;8.162;2022-07-12T10:28:55;92709.66;;;24.92;44.96
7660;BME280;3872;47.902;8.162;2022-07-12T10:31:24;92712.47;;;24.31;45.41
7660;BME280;3872;47.902;8.162;2022-07-12T10:34:12;92706.03;;;25.38;42.54
7660;BME280;3872;47.902;8.162;2022-07-12T10:37:07;92702.50;;;24.32;40.93
7660;BME280;3872;47.902;8.162;2022-07-12T10:39:36;92699.41;;;24.10;43.58
7660;BME280;3872;47.902;8.162;2022-07-12T10:42:16;92704.88;;;25.09;41.19
7660;BME280;3872;47.902;8.162;2022-07-12T10:44:45;92706.69;;;25.01;39.70
7660;BME280;3872;47.902;8.162;2022-07-12T10:47:13;92705.41;;;24.69;41.25
7660;BME280;3872;47.902;8.162;2022-07-12T10:49:51;92703.78;;;25.69;42.33
7660;BME280;3872;47.902;8.162;2022-07-12T10:52:27;92698.88;;;26.12;42.70
7660;BME280;3872;47.902;8.162;2022-07-12T10:55:17;92700.00;;;26.11;40.53
7660;BME280;3872;47.902;8.162;2022-07-12T10:57:46;92693.78;;;26.40;39.07
7660;BME280;3872;47.902;8.162;2022-07-12T11:00:16;92694.25;;;26.49;35.29
7660;BME280;3872;47.902;8.162;2022-07-12T11:02:43;92694.75;;;26.22;40.10
7660;BME280;3872;47.902;8.162;2022-07-12T11:05:10;92695.16;;;26.64;37.24
7660;BME280;3872;47.902;8.162;2022-07-12T11:07:36;92685.44;;;26.60;33.88
7660;BME280;3872;47.902;8.162;2022-07-12T11:10:04;92695.44;;;24.69;37.36
7660;BME280;3872;47.902;8.162;2022-07-12T11:12:33;92690.38;;;26.95;35.66
7660;BME280;3872;47.902;8.162;2022-07-12T11:15:00;92676.16;;;27.70;35.22
7660;BME280;3872;47.902;8.162;2022-07-12T11:17:27;92684.81;;;27.28;34.27
7660;BME280;3872;47.902;8.162;2022-07-12T11:20:06;92680.38;;;27.67;32.31
7660;BME280;3872;47.902;8.162;2022-07-12T11:22:35;92680.44;;;27.85;31.16
7660;BME280;3872;47.902;8.162;2022-07-12T11:25:02;92686.69;;;27.20;31.10
7660;BME280;3872;47.902;8.162;2022-07-12T11:27:29;92673.59;;;27.29;32.12
7660;BME280;3872;47.902;8.162;2022-07-12T11:29:58;92682.75;;;26.56;32.61
7660;BME280;3872;47.902;8.162;2022-07-12T11:32:33;92676.22;;;27.88;30.92
7660;BME280;3872;47.902;8.162;2022-07-12T11:35:01;92687.06;;;26.64;31.73
7660;BME280;3872;47.902;8.162;2022-07-12T11:37:27;92675.41;;;26.57;32.62
7660;BME280;3872;47.902;8.162;2022-07-12T11:39:55;92670.88;;;28.05;30.80
7660;BME280;3872;47.902;8.162;2022-07-12T11:42:22;92676.38;;;28.66;29.78
7660;BME280;3872;47.902;8.162;2022-07-12T11:44:50;92694.78;;;27.17;30.20
7660;BME280;3872;47.902;8.162;2022-07-12T11:47:19;92673.06;;;27.79;31.66
7660;BME280;3872;47.902;8.162;2022-07-12T11:49:47;92678.28;;;28.26;33.24
7660;BME280;3872;47.902;8.162;2022-07-12T11:52:14;92670.91;;;29.30;31.04
7660;BME280;3872;47.902;8.162;2022-07-12T11:54:42;92669.53;;;30.02;27.80
7660;BME280;3872;47.902;8.162;2022-07-12T11:57:10;92675.06;;;27.96;30.06
7660;BME280;3872;47.902;8.162;2022-07-12T11:59:37;92665.28;;;30.01;31.17
7660;BME280;3872;47.902;8.162;2022-07-12T12:02:04;92658.88;;;30.35;28.95
7660;BME280;3872;47.902;8.162;2022-07-12T12:04:44;92661.31;;;30.78;27.11
7660;BME280;3872;47.902;8.162;2022-07-12T12:07:11;92677.19;;;25.38;33.42
7660;BME280;3872;47.902;8.162;2022-07-12T12:10:01;92681.38;;;27.35;31.48
7660;BME280;3872;47.902;8.162;2022-07-12T12:12:35;92677.13;;;29.16;29.71
7660;BME280;3872;47.902;8.162;2022-07-12T12:15:04;92672.78;;;29.61;28.29
7660;BME280;3872;47.902;8.162;2022-07-12T12:17:31;92679.44;;;29.28;28.95
7660;BME280;3872;47.902;8.162;2022-07-12T12:20:08;92683.66;;;29.54;28.30
7660;BME280;3872;47.902;8.162;2022-07-12T12:22:34;92679.84;;;28.73;29.04
7660;BME280;3872;47.902;8.162;2022-07-12T12:25:03;92682.56;;;29.16;27.60
7660;BME280;3872;47.902;8.162;2022-07-12T12:27:31;92677.03;;;30.46;27.54
7660;BME280;3872;47.902;8.162;2022-07-12T12:29:58;92676.47;;;30.76;25.47
7660;BME280;3872;47.902;8.162;2022-07-12T12:32:25;92684.41;;;27.26;29.69
7660;BME280;3872;47.902;8.162;2022-07-12T12:35:06;92671.41;;;30.78;25.98
7660;BME280;3872;47.902;8.162;2022-07-12T12:37:33;92674.22;;;29.94;25.23
7660;BME280;3872;47.902;8.162;2022-07-12T12:39:59;92681.28;;;29.74;26.88
7660;BME280;3872;47.902;8.162;2022-07-12T12:42:26;92676.88;;;30.70;24.95
7660;BME280;3872;47.902;8.162;2022-07-12T12:44:52;92662.19;;;31.54;23.34
7660;BME280;3872;47.902;8.162;2022-07-12T12:47:19;92668.91;;;30.46;25.03
7660;BME280;3872;47.902;8.162;2022-07-12T12:49:58;92663.03;;;31.47;23.88
7660;BME280;3872;47.902;8.162;2022-07-12T12:52:28;92665.13;;;31.32;22.62
7660;BME280;3872;47.902;8.162;2022-07-12T12:54:56;92655.41;;;31.99;24.08
7660;BME280;3872;47.902;8.162;2022-07-12T12:57:23;92662.44;;;32.31;24.48
7660;BME280;3872;47.902;8.162;2022-07-12T12:59:51;92657.44;;;31.95;23.21
7660;BME280;3872;47.902;8.162;2022-07-12T13:02:19;92656.84;;;33.38;22.94
7660;BME280;3872;47.902;8.162;2022-07-12T13:04:46;92656.41;;;32.43;24.17
7660;BME280;3872;47.902;8.162;2022-07-12T13:07:13;92662.59;;;31.48;24.43
7660;BME280;3872;47.902;8.162;2022-07-12T13:09:41;92648.69;;;31.77;23.36
7660;BME280;3872;47.902;8.162;2022-07-12T13:12:08;92655.19;;;30.63;24.63
7660;BME280;3872;47.902;8.162;2022-07-12T13:14:35;92655.28;;;31.42;23.91
7660;BME280;3872;47.902;8.162;2022-07-12T13:17:02;92660.69;;;31.04;25.27
7660;BME280;3872;47.902;8.162;2022-07-12T13:19:29;92650.50;;;31.16;26.21
7660;BME280;3872;47.902;8.162;2022-07-12T13:21:57;92660.25;;;29.99;28.45
7660;BME280;3872;47.902;8.162;2022-07-12T13:24:23;92661.06;;;29.92;27.68